Airfield :
LOGIN :

Register | Disclaimer

   EN    FR    IT 

 










Legend :    VFR   Marginal VFR   IFR   Intensive IFR   Very Intensive IFR
Visi :
Ceiling :
>= 8 km
>= 3000ft
5 to 8 km
1000 to 3000 ft
1500m to 5 km
500 to 1000 ft
800 to 1500m
200 to 500 ft
< 800m
< 200 ft
Symbols :   Thunderstorms  Fog  Heavy snow  Heavy precipitations  Wind > 20 kt
SIGMETs :     Misc.  Thunderstorms  Icing  Turbulence  Mountain Waves  Volcanic Ashes






- Airport Elevation : 106 ft
- IATA code : XDA


LFBY - Dax Seyresse

CURRENT METAR :
  • 282230Z AUTO 05004KT 9999 // ////// 22/14 Q1019

EXPIRED METARs :
  • 282200Z AUTO 04004KT 010V070 9999 // ////// 23/13 Q1019
  • 282130Z AUTO 03005KT 9999 // ////// 24/13 Q1019
  • 282100Z AUTO 05004KT 010V070 9999 // ////// 25/12 Q1019
  • 282030Z AUTO 07005KT 040V120 9999 // ////// 26/12 Q1019
  • 282000Z AUTO 07004KT 9999 // ////// 26/12 Q1019
  • 281930Z AUTO 08006KT 9999 // ////// 26/11 Q1018

Expired Forecast.



MET'MAP, your aeronautical weather chart ! - Copyright ORBIFLY December 2007 - Disclaimer

ORBIFLY MET'MAP TEAM :

Programming & Development : Alexandra Zaïnal
Concept & original design : Baudouin d'Aumeries
Assistance for programming : Marc-Olivier Méhu
Technical & hardware support : Manuel Goepfert

Contact : metmap@orbifly.com




SOURCES & CREDITS :

   NOAA